SALMON FALLS @ MILTON: From 08/05/2019 17:00 to 08/20/2019 01:00

Date STAGE [FT] FLOW [CFS] LAKE ELEVATION [FT] PRECIPITATION INCREMENT [IN] AIR TEMPERATURE [DEGF]
08/19/2019 20:00 -- -- -- 0.00 --
08/19/2019 19:00 2.49 -- 413.50 0.00 79.0
08/19/2019 18:00 2.48 19.6 413.50 0.00 80.9
08/19/2019 17:00 2.48 19.6 413.50 0.00 75.2
08/19/2019 16:00 2.48 19.6 413.45 0.00 87.0
08/19/2019 15:00 2.48 19.6 413.45 0.00 85.3
08/19/2019 14:00 2.48 19.6 413.44 0.00 83.5
08/19/2019 13:00 2.48 19.6 413.43 0.00 81.3
08/19/2019 12:00 2.48 19.6 413.43 0.00 79.0
08/19/2019 11:00 2.48 19.6 413.42 0.00 75.5
08/19/2019 10:00 2.47 18.9 413.42 0.00 71.6
08/19/2019 09:00 2.47 18.9 413.40 0.00 69.5
08/19/2019 08:00 2.47 18.9 413.39 0.00 68.0
08/19/2019 07:00 2.47 18.9 413.39 0.00 68.0
08/19/2019 06:00 2.47 18.9 413.38 0.00 68.5
08/19/2019 05:00 2.47 18.9 413.37 0.00 68.4
08/19/2019 04:00 2.47 18.9 413.37 0.00 68.3
08/19/2019 03:00 2.47 18.9 413.35 0.00 68.1
08/19/2019 02:00 2.47 18.9 413.35 0.00 68.8
08/19/2019 01:00 2.48 19.6 413.34 0.00 69.0
08/19/2019 00:00 2.46 18.2 413.28 0.00 68.2
08/18/2019 23:00 2.46 18.2 413.28 0.00 68.3
08/18/2019 22:00 2.46 18.2 413.28 0.00 69.5
08/18/2019 21:00 2.47 18.9 413.27 0.00 71.0
08/18/2019 20:00 2.46 18.2 413.28 0.00 75.0
08/18/2019 19:00 2.46 18.2 413.28 0.00 78.9
08/18/2019 18:00 2.46 18.2 413.28 0.00 83.2
08/18/2019 17:00 2.46 18.2 413.28 0.00 84.5
08/18/2019 16:00 2.47 18.9 413.28 0.00 82.4
08/18/2019 15:00 2.47 18.9 413.29 0.00 82.1
08/18/2019 14:00 2.47 18.9 413.28 0.00 80.2
08/18/2019 13:00 2.47 18.9 413.28 0.00 77.0
08/18/2019 12:00 2.47 18.9 413.28 0.00 74.3
08/18/2019 11:00 2.47 18.9 413.28 0.00 71.6
08/18/2019 10:00 2.46 18.2 413.30 0.00 68.1
08/18/2019 09:00 2.46 18.2 413.28 0.00 66.3
08/18/2019 08:00 2.46 18.2 413.29 0.00 65.0
08/18/2019 07:00 2.46 18.2 413.29 0.00 63.9
08/18/2019 06:00 2.46 18.2 413.28 0.00 65.0
08/18/2019 05:00 2.46 18.2 413.28 0.00 65.8
08/18/2019 04:00 2.46 18.2 413.28 0.00 66.1
08/18/2019 03:00 2.46 18.2 413.28 0.00 66.3
08/18/2019 02:00 2.46 18.2 413.29 0.00 66.3
08/18/2019 01:00 2.46 18.2 413.29 0.00 65.9
08/18/2019 00:00 2.46 18.2 413.26 0.00 65.9
08/17/2019 23:00 2.45 17.5 413.25 0.00 66.6
08/17/2019 22:00 2.45 17.5 413.26 0.00 66.5
08/17/2019 21:00 2.45 17.5 413.25 0.00 67.4
08/17/2019 20:00 2.45 17.5 413.26 0.00 68.4
08/17/2019 19:00 2.45 17.5 413.26 0.00 70.2
08/17/2019 18:00 2.45 17.5 413.25 0.00 69.5
08/17/2019 17:00 2.44 16.9 413.26 0.00 67.9
08/17/2019 16:00 2.44 16.9 413.25 0.00 68.0
08/17/2019 15:00 2.44 16.9 413.26 0.00 67.7
08/17/2019 14:00 2.44 16.9 413.26 0.00 67.3
08/17/2019 13:00 2.44 16.9 413.25 0.00 67.2
08/17/2019 12:00 2.45 17.5 413.26 0.00 67.1
08/17/2019 11:00 2.44 16.9 413.26 0.00 65.5
08/17/2019 10:00 2.44 16.9 413.26 0.00 65.0
08/17/2019 09:00 2.44 16.9 413.26 0.00 64.3
08/17/2019 08:00 2.44 16.9 413.26 0.00 65.0
08/17/2019 07:00 2.45 17.5 413.26 0.00 63.9
08/17/2019 06:00 2.45 17.5 413.26 0.00 64.6
08/17/2019 05:00 2.45 17.5 413.26 0.00 64.6
08/17/2019 04:00 2.44 16.9 413.26 0.00 64.9
08/17/2019 03:00 2.44 16.9 413.26 0.00 64.7
08/17/2019 02:00 2.44 16.9 413.26 0.00 65.0
08/17/2019 01:00 2.44 16.9 413.26 0.00 65.1
08/17/2019 00:00 2.44 16.9 413.25 0.00 64.8
08/16/2019 23:00 2.44 16.9 413.27 0.00 64.6
08/16/2019 22:00 2.44 16.9 413.26 0.00 64.4
08/16/2019 21:00 2.44 16.9 413.26 0.00 65.7
08/16/2019 20:00 2.44 16.9 413.26 0.00 68.7
08/16/2019 19:00 2.44 16.9 413.26 0.00 71.4
08/16/2019 18:00 2.44 16.9 413.26 0.00 74.2
08/16/2019 17:00 2.44 16.9 413.26 0.00 75.3
08/16/2019 16:00 2.44 16.9 413.26 0.00 75.9
08/16/2019 15:00 2.45 17.5 413.26 0.00 76.2
08/16/2019 14:00 2.44 16.9 413.27 0.00 73.6
08/16/2019 13:00 2.45 17.5 413.26 0.00 72.1
08/16/2019 12:00 2.44 16.9 413.27 0.00 70.1
08/16/2019 11:00 2.44 16.9 413.27 0.00 65.3
08/16/2019 10:00 2.44 16.9 413.27 0.00 64.3
08/16/2019 09:00 2.44 16.9 413.28 0.00 63.9
08/16/2019 08:00 2.44 16.9 413.27 0.00 63.3
08/16/2019 07:00 2.44 16.9 413.28 0.00 62.5
08/16/2019 06:00 2.44 16.9 413.27 0.00 62.5
08/16/2019 05:00 2.44 16.9 413.27 0.00 62.1
08/16/2019 04:00 2.44 16.9 413.27 0.00 62.8
08/16/2019 03:00 2.44 16.9 413.28 0.00 62.9
08/16/2019 02:00 2.45 17.5 413.28 0.00 62.8
08/16/2019 01:00 2.45 17.5 413.27 0.00 62.8
08/16/2019 00:00 2.45 17.5 413.28 0.00 62.5
08/15/2019 23:00 2.45 17.5 413.28 0.00 62.9
08/15/2019 22:00 2.45 17.5 413.28 0.00 64.5
08/15/2019 21:00 2.45 17.5 413.28 0.00 67.3
08/15/2019 20:00 2.45 17.5 413.27 0.00 70.5
08/15/2019 19:00 2.45 17.5 413.27 0.00 73.0
08/15/2019 18:00 2.44 16.9 413.27 0.00 74.9
08/15/2019 17:00 2.45 17.5 413.28 0.00 76.9
08/15/2019 16:00 2.45 17.5 413.28 0.00 76.1
08/15/2019 15:00 2.45 17.5 413.27 0.00 73.7
08/15/2019 14:00 2.45 17.5 413.28 0.00 73.7
08/15/2019 13:00 2.46 18.2 413.29 0.00 72.2
08/15/2019 12:00 2.46 18.2 413.28 0.00 70.6
08/15/2019 11:00 2.46 18.2 413.29 0.00 69.3
08/15/2019 10:00 2.46 18.2 413.28 0.00 66.2
08/15/2019 09:00 2.46 18.2 413.29 0.00 64.6
08/15/2019 08:00 2.46 18.2 413.28 0.00 60.7
08/15/2019 07:00 2.46 18.2 413.30 0.00 58.6
08/15/2019 06:00 2.46 18.2 413.30 0.00 58.9
08/15/2019 05:00 2.46 18.2 413.29 0.00 59.4
08/15/2019 04:00 2.46 18.2 413.29 0.00 60.8
08/15/2019 03:00 2.46 18.2 413.29 0.00 60.9
08/15/2019 02:00 2.46 18.2 413.29 0.00 61.3
08/15/2019 01:00 2.46 18.2 413.29 0.00 61.4
08/15/2019 00:00 2.46 18.2 413.29 0.00 62.4
08/14/2019 23:00 2.46 18.2 413.29 0.00 63.6
08/14/2019 22:00 2.46 18.2 413.29 0.00 65.6
08/14/2019 21:00 2.46 18.2 413.29 0.00 68.9
08/14/2019 20:00 2.46 18.2 413.29 0.00 72.4
08/14/2019 19:00 2.46 18.2 413.28 0.00 74.7
08/14/2019 18:00 2.46 18.2 413.29 0.00 78.3
08/14/2019 17:00 2.46 18.2 413.30 0.00 77.3
08/14/2019 16:00 2.46 18.2 413.30 0.00 76.9
08/14/2019 15:00 2.46 18.2 413.30 0.00 76.1
08/14/2019 14:00 2.46 18.2 413.30 0.00 74.4
08/14/2019 13:00 2.46 18.2 413.31 0.00 73.4
08/14/2019 12:00 2.46 18.2 413.31 0.00 71.6
08/14/2019 11:00 2.46 18.2 413.31 0.00 69.3
08/14/2019 10:00 2.45 17.5 413.30 0.00 67.4
08/14/2019 09:00 2.45 17.5 413.31 0.00 65.5
08/14/2019 08:00 2.45 17.5 413.32 0.00 63.3
08/14/2019 07:00 2.45 17.5 413.32 0.00 61.5
08/14/2019 06:00 2.45 17.5 413.32 0.00 62.6
08/14/2019 05:00 2.46 18.2 413.31 0.00 64.7
08/14/2019 04:00 2.45 17.5 413.31 0.00 65.1
08/14/2019 03:00 2.46 18.2 413.32 0.00 66.1
08/14/2019 02:00 2.46 18.2 413.31 0.00 67.3
08/14/2019 01:00 2.46 18.2 413.31 0.00 67.9
08/14/2019 00:00 2.46 18.2 413.31 0.00 68.8
08/13/2019 23:00 2.46 18.2 413.30 0.00 68.7
08/13/2019 22:00 2.46 18.2 413.30 0.00 70.3
08/13/2019 21:00 2.46 18.2 413.31 0.00 71.5
08/13/2019 20:00 2.46 18.2 413.30 0.00 71.8
08/13/2019 19:00 2.46 18.2 413.30 0.00 71.2
08/13/2019 18:00 2.46 18.2 413.30 0.00 71.3
08/13/2019 17:00 2.46 18.2 413.28 0.00 68.8
08/13/2019 16:00 2.47 18.9 413.30 0.00 73.2
08/13/2019 15:00 2.47 18.9 413.28 0.00 71.2
08/13/2019 14:00 2.46 18.2 413.27 0.00 77.2
08/13/2019 13:00 2.46 18.2 413.26 0.00 76.9
08/13/2019 12:00 2.46 18.2 413.27 0.00 77.2
08/13/2019 11:00 2.46 18.2 413.27 0.00 75.6
08/13/2019 10:00 2.46 18.2 413.27 0.00 71.3
08/13/2019 09:00 2.46 18.2 413.27 0.00 69.4
08/13/2019 08:00 2.46 18.2 413.26 0.00 68.1
08/13/2019 07:00 2.46 18.2 413.27 0.00 68.2
08/13/2019 06:00 2.46 18.2 413.27 0.00 67.9
08/13/2019 05:00 2.46 18.2 413.27 0.00 69.1
08/13/2019 04:00 2.46 18.2 413.27 0.00 70.8
08/13/2019 03:00 2.46 18.2 413.26 0.00 71.9
08/13/2019 02:00 2.46 18.2 413.27 0.00 69.6
08/13/2019 01:00 2.46 18.2 413.27 0.00 66.1
08/13/2019 00:00 2.46 18.2 413.27 0.00 67.4
08/12/2019 23:00 2.46 18.2 413.27 0.00 68.4
08/12/2019 22:00 2.46 18.2 413.27 0.00 70.5
08/12/2019 21:00 2.46 18.2 413.27 0.00 72.4
08/12/2019 20:00 2.46 18.2 413.27 0.00 76.4
08/12/2019 19:00 2.46 18.2 413.27 0.00 80.3
08/12/2019 18:00 2.45 17.5 413.27 0.00 79.4
08/12/2019 17:00 2.46 18.2 413.28 0.00 80.0
08/12/2019 16:00 2.46 18.2 413.28 0.00 81.6
08/12/2019 15:00 2.46 18.2 413.27 0.00 81.9
08/12/2019 14:00 2.46 18.2 413.26 0.00 80.1
08/12/2019 13:00 2.46 18.2 413.28 0.00 78.5
08/12/2019 12:00 2.46 18.2 413.27 0.00 77.2
08/12/2019 11:00 2.46 18.2 413.28 0.00 73.0
08/12/2019 10:00 2.46 18.2 413.28 0.00 70.4
08/12/2019 09:00 2.45 17.5 413.28 0.00 68.4
08/12/2019 08:00 2.46 18.2 413.29 0.00 66.2
08/12/2019 07:00 2.46 18.2 413.29 0.00 62.1
08/12/2019 06:00 2.45 17.5 413.28 0.00 58.0
08/12/2019 05:00 2.46 18.2 413.29 0.00 56.8
08/12/2019 04:00 2.46 18.2 413.28 0.00 58.8
08/12/2019 03:00 2.46 18.2 413.29 0.00 58.1
08/12/2019 02:00 2.46 18.2 413.29 0.00 59.4
08/12/2019 01:00 2.46 18.2 413.29 0.00 60.4
08/12/2019 00:00 2.46 18.2 413.28 0.00 63.5
08/11/2019 23:00 2.46 18.2 413.29 0.00 62.3
08/11/2019 22:00 2.46 18.2 413.28 0.00 62.9
08/11/2019 21:00 2.46 18.2 413.29 0.00 66.3
08/11/2019 20:00 2.45 17.5 413.28 0.00 69.4
08/11/2019 19:00 2.46 18.2 413.30 0.00 73.5
08/11/2019 18:00 2.46 18.2 413.29 0.00 74.3
08/11/2019 17:00 2.46 18.2 413.30 0.00 74.0
08/11/2019 16:00 2.46 18.2 413.30 0.00 73.4
08/11/2019 15:00 2.46 18.2 413.29 0.00 71.4
08/11/2019 14:00 2.46 18.2 413.31 0.00 71.2
08/11/2019 13:00 2.46 18.2 413.29 0.00 70.6
08/11/2019 12:00 2.46 18.2 413.28 0.00 69.0
08/11/2019 11:00 2.46 18.2 413.30 0.00 67.5
08/11/2019 10:00 2.46 18.2 413.32 0.00 66.1
08/11/2019 09:00 2.46 18.2 413.30 0.00 61.8
08/11/2019 08:00 2.45 17.5 413.31 0.00 59.7
08/11/2019 07:00 2.45 17.5 413.30 0.00 57.5
08/11/2019 06:00 2.45 17.5 413.31 0.00 58.4
08/11/2019 05:00 2.45 17.5 413.31 0.00 58.3
08/11/2019 04:00 2.45 17.5 413.31 0.00 58.7
08/11/2019 03:00 2.45 17.5 413.31 0.00 59.6
08/11/2019 02:00 2.45 17.5 413.31 0.00 59.4
08/11/2019 01:00 2.45 17.5 413.31 0.00 60.7
08/11/2019 00:00 2.45 17.5 413.31 0.00 59.2
08/10/2019 23:00 2.45 17.5 413.31 0.00 59.7
08/10/2019 22:00 2.46 18.2 413.32 0.00 62.1
08/10/2019 21:00 2.45 17.5 413.29 0.00 64.4
08/10/2019 20:00 2.45 17.5 413.32 0.00 67.5
08/10/2019 19:00 2.45 17.5 413.32 0.00 69.8
08/10/2019 18:00 2.46 18.2 413.33 0.00 71.2
08/10/2019 17:00 2.46 18.2 413.32 0.00 72.4
08/10/2019 16:00 2.45 17.5 413.30 0.00 70.4
08/10/2019 15:00 2.46 18.2 413.35 0.00 68.0
08/10/2019 14:00 2.46 18.2 413.33 0.00 71.5
08/10/2019 13:00 2.46 18.2 413.33 0.00 71.1
08/10/2019 12:00 2.45 17.5 413.30 0.00 70.1
08/10/2019 11:00 2.45 17.5 413.31 0.00 69.2
08/10/2019 10:00 2.45 17.5 413.32 0.00 68.2
08/10/2019 09:00 2.45 17.5 413.32 0.00 64.8
08/10/2019 08:00 2.45 17.5 413.32 0.00 59.5
08/10/2019 07:00 2.45 17.5 413.33 0.00 56.6
08/10/2019 06:00 2.45 17.5 413.33 0.00 56.8
08/10/2019 05:00 2.45 17.5 413.33 0.00 58.0
08/10/2019 04:00 2.45 17.5 413.32 0.00 58.4
08/10/2019 03:00 2.45 17.5 413.32 0.00 59.5
08/10/2019 02:00 2.45 17.5 413.33 0.00 62.9
08/10/2019 01:00 2.45 17.5 413.32 0.00 63.1
08/10/2019 00:00 2.45 17.5 413.34 0.00 67.6
08/09/2019 23:00 2.45 17.5 413.33 0.00 63.9
08/09/2019 22:00 2.45 17.5 413.32 0.00 64.3
08/09/2019 21:00 2.45 17.5 413.32 0.00 68.2
08/09/2019 20:00 2.45 17.5 413.32 0.00 73.2
08/09/2019 19:00 2.46 18.2 413.32 0.00 77.5
08/09/2019 18:00 2.46 18.2 413.32 0.00 79.6
08/09/2019 17:00 2.47 18.9 413.32 0.00 77.9
08/09/2019 16:00 2.47 18.9 413.32 0.00 79.1
08/09/2019 15:00 2.47 18.9 413.33 0.00 78.0
08/09/2019 14:00 2.47 18.9 413.34 0.00 78.0
08/09/2019 13:00 2.47 18.9 413.34 0.00 77.3
08/09/2019 12:00 2.47 18.9 413.36 0.00 75.6
08/09/2019 11:00 2.46 18.2 413.34 0.00 74.0
08/09/2019 10:00 2.46 18.2 413.34 0.00 71.2
08/09/2019 09:00 2.46 18.2 413.33 0.00 67.3
08/09/2019 08:00 2.46 18.2 413.34 0.00 63.3
08/09/2019 07:00 2.46 18.2 413.33 0.00 60.9
08/09/2019 06:00 2.46 18.2 413.34 0.00 61.6
08/09/2019 05:00 2.46 18.2 413.33 0.00 61.9
08/09/2019 04:00 2.46 18.2 413.33 0.00 64.5
08/09/2019 03:00 2.46 18.2 413.33 0.00 64.7
08/09/2019 02:00 2.46 18.2 413.33 0.00 64.5
08/09/2019 01:00 2.46 18.2 413.34 0.00 64.5
08/09/2019 00:00 2.46 18.2 413.33 0.00 66.6
08/08/2019 23:00 2.46 18.2 413.33 0.00 66.1
08/08/2019 22:00 2.46 18.2 413.34 0.00 67.0
08/08/2019 21:00 2.46 18.2 413.30 0.00 67.5
08/08/2019 20:00 2.46 18.2 413.32 0.00 75.9
08/08/2019 19:00 2.46 18.2 413.31 0.00 79.6
08/08/2019 18:00 2.45 17.5 413.32 0.00 82.4
08/08/2019 17:00 2.46 18.2 413.32 0.00 81.3
08/08/2019 16:00 2.46 18.2 413.33 0.00 79.1
08/08/2019 15:00 2.45 17.5 413.31 0.00 79.3
08/08/2019 14:00 2.46 18.2 413.31 0.00 75.5
08/08/2019 13:00 2.46 18.2 413.31 0.00 75.1
08/08/2019 12:00 2.52 22.5 413.31 0.00 73.4
08/08/2019 11:00 2.52 22.5 413.31 0.00 70.8
08/08/2019 10:00 2.52 22.5 413.31 0.00 68.5
08/08/2019 09:00 2.51 21.7 413.32 0.00 67.5
08/08/2019 08:00 2.51 21.7 413.32 0.00 66.9
08/08/2019 07:00 2.51 21.7 413.32 0.00 66.8
08/08/2019 06:00 2.51 21.7 413.32 0.00 66.5
08/08/2019 05:00 2.51 21.7 413.31 0.00 66.4
08/08/2019 04:00 2.51 21.7 413.31 0.00 66.5
08/08/2019 03:00 2.51 21.7 413.30 0.00 67.3
08/08/2019 02:00 2.50 21.0 413.30 0.00 67.5
08/08/2019 01:00 2.51 21.7 413.29 0.00 67.8
08/08/2019 00:00 2.50 21.0 413.29 0.00 69.0
08/07/2019 23:00 2.50 21.0 413.28 0.00 69.3
08/07/2019 22:00 2.50 21.0 413.29 0.00 69.0
08/07/2019 21:00 2.50 21.0 413.28 0.00 69.3
08/07/2019 20:00 2.50 21.0 413.29 0.00 69.3
08/07/2019 19:00 2.50 21.0 413.28 0.00 69.2
08/07/2019 18:00 2.49 20.3 413.22 0.00 68.3
08/07/2019 17:00 2.49 20.3 413.22 0.00 81.2
08/07/2019 16:00 2.49 20.3 413.22 0.00 80.8
08/07/2019 15:00 2.49 20.3 413.21 0.00 79.8
08/07/2019 14:00 2.49 20.3 413.23 0.00 78.2
08/07/2019 13:00 2.50 21.0 413.23 0.00 76.8
08/07/2019 12:00 2.50 21.0 413.23 0.00 73.9
08/07/2019 11:00 2.50 21.0 413.23 0.00 72.2
08/07/2019 10:00 2.49 20.3 413.23 0.00 69.9
08/07/2019 09:00 2.49 20.3 413.24 0.00 68.2
08/07/2019 08:00 2.49 20.3 413.23 0.00 66.6
08/07/2019 07:00 2.49 20.3 413.23 0.00 66.3
08/07/2019 06:00 2.49 20.3 413.23 0.00 66.2
08/07/2019 05:00 2.49 20.3 413.23 0.00 66.2
08/07/2019 04:00 2.49 20.3 413.23 0.00 66.3
08/07/2019 03:00 2.49 20.3 413.23 0.00 66.2
08/07/2019 02:00 2.49 20.3 413.24 0.00 66.7
08/07/2019 01:00 2.49 20.3 413.24 0.00 66.7
08/07/2019 00:00 2.49 20.3 413.24 0.00 67.0
08/06/2019 23:00 2.48 19.6 413.24 0.00 67.9
08/06/2019 22:00 2.49 20.3 413.23 0.00 68.0
08/06/2019 21:00 2.48 19.6 413.24 0.00 70.2
08/06/2019 20:00 2.49 20.3 413.23 0.00 71.8
08/06/2019 19:00 2.48 19.6 413.23 0.00 73.1
08/06/2019 18:00 2.48 19.6 413.24 0.00 76.1
08/06/2019 17:00 2.48 19.6 413.23 0.00 76.5
08/06/2019 16:00 2.48 19.6 413.23 0.00 77.8
08/06/2019 15:00 2.48 19.6 413.24 0.00 80.0
08/06/2019 14:00 2.48 19.6 413.23 0.00 79.1
08/06/2019 13:00 2.49 20.3 413.24 0.00 78.2
08/06/2019 12:00 2.48 19.6 413.25 0.00 75.9
08/06/2019 11:00 2.49 20.3 413.25 0.00 73.7
08/06/2019 10:00 2.48 19.6 413.25 0.00 68.1
08/06/2019 09:00 2.48 19.6 413.26 0.00 63.0
08/06/2019 08:00 2.48 19.6 413.25 0.00 59.1
08/06/2019 07:00 2.48 19.6 413.25 0.00 55.8
08/06/2019 06:00 2.48 19.6 413.26 0.00 57.1
08/06/2019 05:00 2.48 19.6 413.26 0.00 57.0
08/06/2019 04:00 2.48 19.6 413.25 0.00 58.6
08/06/2019 03:00 2.48 19.6 413.26 0.00 57.7
08/06/2019 02:00 2.48 19.6 413.26 0.00 60.0
08/06/2019 01:00 2.48 19.6 413.25 0.00 60.2
08/06/2019 00:00 2.48 19.6 413.26 0.00 61.0
08/05/2019 23:00 2.48 19.6 413.26 0.00 62.6
08/05/2019 22:00 2.48 19.6 413.26 0.00 64.7
08/05/2019 21:00 2.48 19.6 413.26 0.00 67.7
08/05/2019 20:00 2.48 19.6 413.26 0.00 72.6
08/05/2019 19:00 -- -- -- -- --
08/05/2019 18:00 -- -- -- -- --
08/05/2019 17:00 -- -- -- -- --